This is the latest recevied weather packets stored in our database for station/object KF6ILA. If no packets are shown the sender has not sent any weather packets the latest 10 day(s).
| Time | Temp. | Humidity | Pressure | Rain* | Wind** | Luminosity | Snow |
|---|---|---|---|---|---|---|---|
| 1787679919 | 35° C | 27% | 1020.1 hPa | 0 mm | - | 824 W/m² | - |
| 1787679622 | 35° C | 26% | 1020.1 hPa | 0 mm | - | 814 W/m² | - |
| 1787679325 | 35.56° C | 26% | 1020.1 hPa | 0 mm | - | 802 W/m² | - |
| 1787678731 | 35.56° C | 26% | 1020.1 hPa | 0 mm | - | 780 W/m² | - |
| 1787678434 | 35.56° C | 26% | 1020.1 hPa | 0 mm | - | 770 W/m² | - |
| 1787678137 | 35.56° C | 26% | 1020.1 hPa | 0 mm | - | 756 W/m² | - |
| 1787677840 | 35.56° C | 25% | 1020.1 hPa | 0 mm | - | 744 W/m² | - |
| 1787677543 | 35° C | 26% | 1020.1 hPa | 0 mm | - | 731 W/m² | - |
| 1787677246 | 35° C | 26% | 1020.2 hPa | 0 mm | - | 717 W/m² | - |
| 1787676949 | 35° C | 26% | 1020.1 hPa | 0 mm | - | 701 W/m² | - |
| 1787676652 | 35° C | 26% | 1020.2 hPa | 0 mm | - | 687 W/m² | - |
| 1787676412 | 32.78° C | 29% | 1020.3 hPa | 0 mm | - | 515 W/m² | - |
| 1787676355 | 35° C | 26% | 1020.2 hPa | 0 mm | - | 673 W/m² | - |
| 1787676058 | 34.44° C | 26% | 1020.2 hPa | 0 mm | - | 661 W/m² | - |
| 1787675761 | 34.44° C | 26% | 1020.3 hPa | 0 mm | - | 647 W/m² | - |
| 1787675464 | 34.44° C | 26% | 1020.2 hPa | 0 mm | - | 629 W/m² | - |
| 1787675167 | 34.44° C | 27% | 1020.3 hPa | 0 mm | - | 613 W/m² | - |
| 1787673385 | 32.78° C | 29% | 1020.3 hPa | 0 mm | - | 515 W/m² | - |
| 1787671900 | 32.22° C | 30% | 1019.4 hPa | 0 mm | - | 427 W/m² | - |
| 1787671603 | 31.67° C | 30% | 1019.4 hPa | 0 mm | - | 408 W/m² | - |
| 1787671306 | 31.11° C | 30% | 1019.4 hPa | 0 mm | - | 390 W/m² | - |
| 1787671009 | 31.11° C | 31% | 1019.3 hPa | 0 mm | - | 371 W/m² | - |
| 1787670712 | 30.56° C | 31% | 1019.2 hPa | 0 mm | - | 353 W/m² | - |
| 1787670415 | 30° C | 32% | 1019.2 hPa | 0 mm | - | 336 W/m² | - |
| 1787669821 | 28.89° C | 34% | 1019.2 hPa | 0 mm | - | 301 W/m² | - |
* Rain latest hour (hover to see other rain measurements)
** Current wind speed in m/s (hover to see current wind gust speed)